^^

..:: Storico WU ::..




Lo storico viene creato da WUnderground con i dati che la stazione Meteomincio invia al loro server. L' aggiornamento viene fatto ogni 5 minuti circa, tuttavia possono esserci intervalli pił ampi a causa di errori, interruzioni di servizio o problemi nell' invio tramite FTP.


Storico stazione MeteoMincio
Giorno Sommario per Settembre 18, 2022 Unità:  Inglese    Metrico   Entrambi
Giorno Settimana Mese Anno
  Max: Min: Media:
Temperatura: 77 °F 48.2 °F 61.5 °F
Dew Point: 53.6 °F 42.8 °F 49.1 °F
Umidità: 92% 31% 68%
Velocità vento: 11.8mph 0mph 4.8mph
Raffica: 14.9mph - -
Direzione- - WSW
Pressione: 30 in 29.9 in -
Precipitazioni: 0.01 in    
 
 
Tabulato Dati per Settembre 18, 2022
Ora Temperatura Dew Point Pressione Direzione Velocità vento Raffica Umidità Intensità pioggia (oraria) Info solare Situazione
00:04 53.6 °F 50 °F 29.9 in WNW 2.5 mph 3.7 mph 89% 0 in 0.00 W/m2 unknown
00:09 53.6 °F 50 °F 29.9 in WNW 1.2 mph 2.5 mph 90% 0 in 0.00 W/m2 unknown
00:14 53.6 °F 50 °F 29.9 in WNW 0.6 mph 1.2 mph 90% 0 in 0.00 W/m2 unknown
00:19 53.6 °F 50 °F 29.9 in NNE 1.9 mph 2.5 mph 90% 0 in 0.00 W/m2 unknown
00:24 53.6 °F 50 °F 29.9 in NNE 1.2 mph 2.5 mph 90% 0 in 0.00 W/m2 unknown
00:29 53.6 °F 50 °F 29.9 in NNE 0.6 mph 2.5 mph 91% 0 in 0.00 W/m2 unknown
00:34 53.6 °F 50 °F 29.9 in NNW 1.2 mph 2.5 mph 91% 0 in 0.00 W/m2 unknown
00:39 53.6 °F 50 °F 29.9 in NNW 1.2 mph 2.5 mph 90% 0 in 0.00 W/m2 unknown
00:44 53.6 °F 50 °F 29.9 in NNE 0.6 mph 1.9 mph 91% 0 in 0.00 W/m2 unknown
00:49 53.6 °F 50 °F 29.9 in East 2.5 mph 3.7 mph 91% 0 in 0.00 W/m2 unknown
00:54 51.8 °F 50 °F 29.9 in SE 3.1 mph 3.7 mph 91% 0 in 0.00 W/m2 unknown
00:59 51.8 °F 50 °F 29.9 in SSE 1.9 mph 3.7 mph 92% 0 in 0.00 W/m2 unknown
01:04 51.8 °F 50 °F 29.9 in Calm   3.1 mph 92% 0 in 0.00 W/m2 unknown
01:09 51.8 °F 50 °F 29.9 in SSW 2.5 mph 3.7 mph 92% 0 in 0.00 W/m2 unknown
01:14 51.8 °F 50 °F 29.9 in SSW 2.5 mph 3.7 mph 92% 0 in 0.00 W/m2 unknown
01:19 51.8 °F 50 °F 29.9 in South 1.2 mph 2.5 mph 92% 0 in 0.00 W/m2 unknown
01:24 51.8 °F 50 °F 29.9 in South 1.9 mph 3.7 mph 92% 0 in 0.00 W/m2 unknown
01:29 51.8 °F 50 °F 29.9 in SSW 3.1 mph 3.7 mph 92% 0 in 0.00 W/m2 unknown
01:34 51.8 °F 50 °F 29.9 in SSW 1.9 mph 3.7 mph 92% 0 in 0.00 W/m2 unknown
01:39 51.8 °F 50 °F 29.9 in SSW 1.2 mph 3.1 mph 91% 0 in 0.00 W/m2 unknown
01:44 51.8 °F 50 °F 29.9 in SW 2.5 mph 3.7 mph 91% 0 in 0.00 W/m2 unknown
01:49 51.8 °F 50 °F 29.9 in WSW 3.1 mph 3.7 mph 91% 0 in 0.00 W/m2 unknown
01:54 51.8 °F 48.2 °F 29.9 in WSW 2.5 mph 3.7 mph 91% 0 in 0.00 W/m2 unknown
01:59 51.8 °F 48.2 °F 29.9 in SW 4.3 mph 6.2 mph 92% 0 in 0.00 W/m2 unknown
02:04 51.8 °F 50 °F 29.9 in WSW 3.7 mph 6.2 mph 92% 0 in 0.00 W/m2 unknown
02:09 51.8 °F 48.2 °F 29.9 in WSW 3.1 mph 3.7 mph 92% 0 in 0.00 W/m2 unknown
02:14 51.8 °F 48.2 °F 29.9 in WSW 3.1 mph 5 mph 91% 0 in 0.00 W/m2 unknown
02:19 51.8 °F 48.2 °F 29.9 in SW 3.7 mph 5 mph 91% 0 in 0.00 W/m2 unknown
02:24 51.8 °F 48.2 °F 29.9 in WSW 3.1 mph 5 mph 91% 0 in 0.00 W/m2 unknown
02:29 51.8 °F 48.2 °F 29.9 in WSW 3.7 mph 5 mph 91% 0 in 0.00 W/m2 unknown
02:34 51.8 °F 48.2 °F 29.9 in WSW 3.7 mph 6.2 mph 90% 0 in 0.00 W/m2 unknown
02:39 51.8 °F 48.2 °F 29.9 in WSW 4.3 mph 6.2 mph 91% 0 in 0.00 W/m2 unknown
02:44 51.8 °F 48.2 °F 29.9 in WSW 4.3 mph 6.2 mph 91% 0 in 0.00 W/m2 unknown
02:49 51.8 °F 50 °F 29.9 in West 4.3 mph 6.2 mph 90% 0 in 0.00 W/m2 unknown
02:54 51.8 °F 50 °F 29.9 in WSW 3.7 mph 6.2 mph 90% 0 in 0.00 W/m2 unknown
02:59 51.8 °F 50 °F 29.9 in WSW 3.7 mph 6.2 mph 90% 0 in 0.00 W/m2 unknown
03:04 51.8 °F 50 °F 29.9 in WSW 3.7 mph 6.2 mph 89% 0 in 0.00 W/m2 unknown
03:09 51.8 °F 50 °F 29.9 in SW 3.7 mph 6.2 mph 89% 0 in 0.00 W/m2 unknown
03:14 51.8 °F 50 °F 29.9 in WSW 3.7 mph 5 mph 90% 0.01 in 0.00 W/m2 unknown
03:19 51.8 °F 50 °F 29.9 in WSW 3.7 mph 5 mph 90% 0.01 in 0.00 W/m2 unknown
03:24 51.8 °F 48.2 °F 29.9 in WSW 3.7 mph 6.2 mph 90% 0.01 in 0.00 W/m2 unknown
03:29 51.8 °F 48.2 °F 29.9 in West 3.7 mph 6.2 mph 90% 0.01 in 0.00 W/m2 unknown
03:34 51.8 °F 48.2 °F 29.9 in West 3.7 mph 6.2 mph 91% 0.01 in 0.00 W/m2 unknown
03:39 51.8 °F 48.2 °F 29.9 in West 5.6 mph 6.8 mph 91% 0.01 in 0.00 W/m2 unknown
03:44 51.8 °F 50 °F 29.9 in West 5 mph 6.8 mph 91% 0.01 in 0.00 W/m2 unknown
03:49 51.8 °F 50 °F 29.9 in WNW 3.7 mph 5 mph 90% 0.01 in 0.00 W/m2 unknown
03:54 51.8 °F 50 °F 29.9 in WNW 3.7 mph 5 mph 90% 0.01 in 0.00 W/m2 unknown
03:59 51.8 °F 48.2 °F 29.9 in WNW 4.3 mph 5 mph 89% 0.01 in 0.00 W/m2 unknown
04:04 51.8 °F 48.2 °F 29.9 in WNW 5 mph 6.8 mph 89% 0.01 in 0.00 W/m2 unknown
04:09 51.8 °F 50 °F 29.9 in West 5 mph 6.8 mph 89% 0.01 in 0.00 W/m2 unknown
04:14 51.8 °F 48.2 °F 29.9 in WSW 4.3 mph 6.2 mph 89% 0.01 in 0.00 W/m2 unknown
04:19 51.8 °F 48.2 °F 29.9 in West 3.1 mph 6.2 mph 89% 0.01 in 0.00 W/m2 unknown
04:24 51.8 °F 48.2 °F 29.9 in WSW 2.5 mph 3.7 mph 90% 0.01 in 0.00 W/m2 unknown
04:29 51.8 °F 48.2 °F 29.9 in West 3.1 mph 3.7 mph 90% 0.01 in 0.00 W/m2 unknown
04:34 51.8 °F 48.2 °F 29.9 in West 2.5 mph 3.7 mph 90% 0 in 0.00 W/m2 unknown
04:39 51.8 °F 48.2 °F 29.9 in WNW 3.1 mph 3.7 mph 90% 0 in 0.00 W/m2 unknown
04:44 51.8 °F 48.2 °F 29.9 in West 3.1 mph 5 mph 90% 0 in 0.00 W/m2 unknown
04:49 51.8 °F 48.2 °F 29.9 in WSW 3.1 mph 5 mph 90% 0 in 0.00 W/m2 unknown
04:54 51.8 °F 48.2 °F 29.9 in WSW 3.1 mph 5 mph 90% 0 in 0.00 W/m2 unknown
04:59 51.8 °F 48.2 °F 29.9 in West 3.7 mph 5 mph 90% 0 in 0.00 W/m2 unknown
05:04 50 °F 48.2 °F 29.9 in West 3.1 mph 5 mph 90% 0 in 0.00 W/m2 unknown
05:09 50 °F 48.2 °F 29.9 in West 4.3 mph 6.2 mph 90% 0 in 0.00 W/m2 unknown
05:14 50 °F 48.2 °F 29.9 in WSW 5 mph 6.8 mph 90% 0 in 0.00 W/m2 unknown
05:19 50 °F 48.2 °F 29.9 in West 5 mph 6.8 mph 90% 0 in 0.00 W/m2 unknown
05:24 50 °F 48.2 °F 29.9 in WSW 3.1 mph 6.2 mph 91% 0 in 0.00 W/m2 unknown
05:29 50 °F 48.2 °F 29.9 in WSW 4.3 mph 6.2 mph 91% 0 in 0.00 W/m2 unknown
05:34 50 °F 48.2 °F 29.9 in West 4.3 mph 6.2 mph 91% 0 in 0.00 W/m2 unknown
05:39 50 °F 48.2 °F 29.9 in West 3.7 mph 5 mph 91% 0 in 0.00 W/m2 unknown
05:44 50 °F 48.2 °F 29.9 in West 3.7 mph 5 mph 91% 0 in 0.00 W/m2 unknown
05:49 50 °F 48.2 °F 29.9 in WNW 3.7 mph 5 mph 91% 0 in 0.00 W/m2 unknown
05:54 50 °F 48.2 °F 29.9 in WNW 3.7 mph 5 mph 91% 0 in 0.00 W/m2 unknown
05:59 50 °F 48.2 °F 29.9 in West 3.7 mph 5 mph 90% 0 in 0.00 W/m2 unknown
06:04 50 °F 48.2 °F 29.9 in West 5 mph 6.2 mph 90% 0 in 0.00 W/m2 unknown
06:09 50 °F 48.2 °F 29.9 in WNW 3.7 mph 6.2 mph 90% 0 in 0.00 W/m2 unknown
06:14 50 °F 48.2 °F 29.9 in WNW 3.7 mph 5 mph 90% 0 in 0.00 W/m2 unknown
06:19 50 °F 48.2 °F 29.9 in WNW 3.1 mph 3.7 mph 89% 0 in 0.00 W/m2 unknown
06:24 50 °F 48.2 °F 29.9 in West 3.1 mph 3.7 mph 89% 0 in 0.00 W/m2 unknown
06:29 50 °F 46.4 °F 29.9 in WNW 2.5 mph 3.7 mph 89% 0 in 0.00 W/m2 unknown
06:34 50 °F 46.4 °F 29.9 in WNW 1.9 mph 3.7 mph 89% 0 in 0.00 W/m2 unknown
06:39 50 °F 46.4 °F 29.9 in WNW 3.7 mph 5 mph 89% 0 in 0.00 W/m2 unknown
06:44 50 °F 46.4 °F 29.9 in West 3.7 mph 5 mph 89% 0 in 0.00 W/m2 unknown
06:49 50 °F 46.4 °F 29.9 in West 3.7 mph 6.2 mph 89% 0 in 0.00 W/m2 unknown
06:54 50 °F 46.4 °F 29.9 in WSW 3.7 mph 6.2 mph 89% 0 in 0.00 W/m2 unknown
06:59 48.2 °F 46.4 °F 29.9 in West 3.7 mph 6.2 mph 89% 0 in 0.00 W/m2 unknown
07:04 48.2 °F 46.4 °F 29.9 in West 3.7 mph 3.7 mph 90% 0 in 5.00 W/m2 unknown
07:09 48.2 °F 46.4 °F 29.9 in WSW 2.5 mph 3.7 mph 90% 0 in 7.00 W/m2 unknown
07:14 48.2 °F 46.4 °F 29.9 in WSW 2.5 mph 3.7 mph 90% 0 in 9.00 W/m2 unknown
07:19 48.2 °F 46.4 °F 29.9 in West 2.5 mph 3.7 mph 90% 0 in 11.00 W/m2 unknown
07:24 48.2 °F 46.4 °F 29.9 in WSW 2.5 mph 3.7 mph 90% 0 in 12.00 W/m2 unknown
07:29 48.2 °F 46.4 °F 29.9 in WSW 3.1 mph 3.7 mph 90% 0 in 14.00 W/m2 unknown
07:34 48.2 °F 46.4 °F 29.9 in WSW 3.1 mph 3.7 mph 90% 0 in 16.00 W/m2 unknown
07:39 50 °F 46.4 °F 29.9 in WSW 2.5 mph 3.7 mph 90% 0 in 19.00 W/m2 unknown
07:44 50 °F 46.4 °F 29.9 in WSW 2.5 mph 3.7 mph 90% 0 in 30.00 W/m2 unknown
07:49 50 °F 46.4 °F 29.9 in West 3.7 mph 5 mph 90% 0 in 53.00 W/m2 unknown
07:54 50 °F 48.2 °F 29.9 in West 3.7 mph 5 mph 90% 0 in 65.00 W/m2 unknown
07:59 51.8 °F 48.2 °F 29.9 in West 4.3 mph 5 mph 89% 0 in 77.00 W/m2 unknown
08:04 51.8 °F 48.2 °F 29.9 in West 3.7 mph 6.2 mph 89% 0 in 91.00 W/m2 unknown
08:09 51.8 °F 48.2 °F 29.9 in West 4.3 mph 6.2 mph 88% 0 in 107.00 W/m2 unknown
08:14 51.8 °F 48.2 °F 29.9 in West 3.1 mph 6.2 mph 87% 0 in 123.00 W/m2 unknown
08:19 53.6 °F 48.2 °F 29.9 in West 3.7 mph 5 mph 87% 0 in 139.00 W/m2 unknown
08:24 53.6 °F 50 °F 29.9 in West 4.3 mph 6.2 mph 86% 0 in 153.00 W/m2 unknown
08:29 53.6 °F 50 °F 29.9 in West 6.8 mph 10.6 mph 86% 0 in 169.00 W/m2 unknown
08:34 53.6 °F 50 °F 29.9 in West 6.2 mph 9.9 mph 85% 0 in 185.00 W/m2 unknown
08:39 53.6 °F 50 °F 29.9 in West 5 mph 6.2 mph 84% 0 in 200.00 W/m2 unknown
08:44 55.4 °F 50 °F 29.9 in West 5.6 mph 8.1 mph 84% 0 in 214.00 W/m2 unknown
08:49 55.4 °F 50 °F 29.9 in West 5.6 mph 8.1 mph 84% 0 in 232.00 W/m2 unknown
08:54 55.4 °F 51.8 °F 29.9 in West 5 mph 8.1 mph 84% 0 in 246.00 W/m2 unknown
08:59 55.4 °F 51.8 °F 29.9 in West 4.3 mph 6.2 mph 84% 0 in 251.00 W/m2 unknown
09:04 57.2 °F 51.8 °F 29.9 in WSW 5 mph 6.2 mph 83% 0 in 262.00 W/m2 unknown
09:09 57.2 °F 51.8 °F 29.9 in WSW 5 mph 6.2 mph 83% 0 in 292.00 W/m2 unknown
09:14 57.2 °F 51.8 °F 29.9 in WSW 3.7 mph 6.2 mph 83% 0 in 306.00 W/m2 unknown
09:19 57.2 °F 51.8 °F 29.9 in WSW 5 mph 8.1 mph 82% 0 in 320.00 W/m2 unknown
09:24 57.2 °F 51.8 °F 29.9 in WSW 6.2 mph 8.1 mph 81% 0 in 336.00 W/m2 unknown
09:29 57.2 °F 51.8 °F 29.9 in WSW 6.8 mph 8.1 mph 80% 0 in 346.00 W/m2 unknown
09:34 57.2 °F 51.8 °F 29.9 in WSW 6.2 mph 8.1 mph 80% 0 in 359.00 W/m2 unknown
09:39 57.2 °F 51.8 °F 29.9 in WSW 6.2 mph 8.1 mph 80% 0 in 367.00 W/m2 unknown
09:44 59 °F 51.8 °F 29.9 in WSW 6.2 mph 8.1 mph 79% 0 in 381.00 W/m2 unknown
09:49 59 °F 51.8 °F 29.9 in WSW 6.2 mph 8.1 mph 78% 0 in 396.00 W/m2 unknown
09:54 59 °F 51.8 °F 29.9 in WSW 5.6 mph 8.1 mph 78% 0 in 406.00 W/m2 unknown
09:59 59 °F 51.8 °F 30 in WSW 7.5 mph 9.3 mph 77% 0 in 422.00 W/m2 unknown
10:04 59 °F 51.8 °F 30 in WSW 7.5 mph 9.3 mph 75% 0 in 434.00 W/m2 unknown
10:09 60.8 °F 51.8 °F 30 in WSW 6.8 mph 9.3 mph 75% 0 in 446.00 W/m2 unknown
10:14 60.8 °F 53.6 °F 30 in WSW 7.5 mph 9.9 mph 75% 0 in 454.00 W/m2 unknown
10:19 60.8 °F 51.8 °F 30 in WSW 6.8 mph 10.6 mph 73% 0 in 469.00 W/m2 unknown
10:24 60.8 °F 51.8 °F 30 in WSW 8.1 mph 10.6 mph 73% 0 in 482.00 W/m2 unknown
10:29 62.6 °F 51.8 °F 30 in WSW 8.1 mph 10.6 mph 71% 0 in 492.00 W/m2 unknown
10:34 62.6 °F 51.8 °F 30 in West 7.5 mph 10.6 mph 71% 0 in 504.00 W/m2 unknown
10:39 62.6 °F 51.8 °F 30 in WSW 7.5 mph 9.9 mph 70% 0 in 517.00 W/m2 unknown
10:44 62.6 °F 51.8 °F 30 in WSW 7.5 mph 10.6 mph 69% 0 in 524.00 W/m2 unknown
10:49 62.6 °F 51.8 °F 30 in WSW 6.8 mph 9.9 mph 69% 0 in 538.00 W/m2 unknown
10:54 62.6 °F 53.6 °F 30 in WSW 7.5 mph 11.2 mph 69% 0 in 541.00 W/m2 unknown
10:59 64.4 °F 53.6 °F 30 in WSW 7.5 mph 11.8 mph 68% 0 in 559.00 W/m2 unknown
11:04 64.4 °F 53.6 °F 30 in WSW 6.2 mph 11.8 mph 67% 0 in 571.00 W/m2 unknown
11:09 64.4 °F 53.6 °F 30 in West 6.2 mph 8.1 mph 66% 0 in 578.00 W/m2 unknown
11:14 64.4 °F 53.6 °F 30 in WSW 6.2 mph 9.3 mph 66% 0 in 589.00 W/m2 unknown
11:19 64.4 °F 53.6 °F 30 in WSW 6.2 mph 8.7 mph 66% 0 in 594.00 W/m2 unknown
11:24 66.2 °F 53.6 °F 30 in WSW 6.8 mph 10.6 mph 66% 0 in 606.00 W/m2 unknown
11:29 66.2 °F 53.6 °F 30 in WSW 6.8 mph 10.6 mph 64% 0 in 615.00 W/m2 unknown
11:34 66.2 °F 53.6 °F 30 in WSW 6.8 mph 9.9 mph 65% 0 in 624.00 W/m2 unknown
11:39 66.2 °F 53.6 °F 30 in WSW 8.1 mph 11.8 mph 63% 0 in 631.00 W/m2 unknown
11:44 66.2 °F 53.6 °F 30 in WSW 6.8 mph 11.8 mph 63% 0 in 638.00 W/m2 unknown
11:49 66.2 °F 53.6 °F 30 in WSW 6.8 mph 10.6 mph 62% 0 in 645.00 W/m2 unknown
11:54 66.2 °F 51.8 °F 30 in WSW 8.1 mph 11.8 mph 60% 0 in 656.00 W/m2 unknown
11:59 66.2 °F 51.8 °F 30 in SW 8.1 mph 11.8 mph 58% 0 in 657.00 W/m2 unknown
12:04 68 °F 53.6 °F 30 in WSW 6.8 mph 11.8 mph 60% 0 in 664.00 W/m2 unknown
12:09 68 °F 51.8 °F 30 in West 6.2 mph 8.7 mph 57% 0 in 671.00 W/m2 unknown
12:14 68 °F 50 °F 30 in SW 7.5 mph 11.2 mph 55% 0 in 677.00 W/m2 unknown
12:19 68 °F 50 °F 30 in WSW 8.1 mph 11.8 mph 55% 0 in 682.00 W/m2 unknown
12:24 68 °F 51.8 °F 30 in WSW 6.8 mph 11.8 mph 55% 0 in 686.00 W/m2 unknown
12:29 68 °F 51.8 °F 30 in West 5.6 mph 9.9 mph 55% 0 in 693.00 W/m2 unknown
12:34 69.8 °F 50 °F 30 in WSW 6.8 mph 9.3 mph 51% 0 in 698.00 W/m2 unknown
12:39 69.8 °F 48.2 °F 30 in West 8.1 mph 11.8 mph 47% 0 in 703.00 W/m2 unknown
12:44 69.8 °F 48.2 °F 30 in West 8.1 mph 11.8 mph 45% 0 in 703.00 W/m2 unknown
12:49 69.8 °F 48.2 °F 30 in West 8.1 mph 11.8 mph 46% 0 in 705.00 W/m2 unknown
12:54 69.8 °F 50 °F 30 in West 8.1 mph 11.8 mph 49% 0 in 708.00 W/m2 unknown
12:59 69.8 °F 50 °F 30 in WNW 8.1 mph 11.8 mph 49% 0 in 708.00 W/m2 unknown
13:04 69.8 °F 50 °F 30 in WSW 9.3 mph 11.8 mph 48% 0 in 710.00 W/m2 unknown
13:09 71.6 °F 50 °F 30 in WSW 8.7 mph 11.8 mph 48% 0 in 712.00 W/m2 unknown
13:14 71.6 °F 51.8 °F 30 in WSW 8.7 mph 11.8 mph 49% 0 in 714.00 W/m2 unknown
13:19 71.6 °F 50 °F 30 in WSW 8.7 mph 11.8 mph 47% 0 in 715.00 W/m2 unknown
13:24 71.6 °F 50 °F 29.9 in SW 8.1 mph 11.8 mph 47% 0 in 715.00 W/m2 unknown
13:29 71.6 °F 50 °F 30 in SW 7.5 mph 11.8 mph 47% 0 in 714.00 W/m2 unknown
13:34 71.6 °F 51.8 °F 29.9 in WSW 6.8 mph 10.6 mph 49% 0 in 714.00 W/m2 unknown
13:39 73.4 °F 51.8 °F 29.9 in SW 6.2 mph 9.9 mph 49% 0 in 712.00 W/m2 unknown
13:44 73.4 °F 51.8 °F 29.9 in WSW 6.2 mph 10.6 mph 47% 0 in 712.00 W/m2 unknown
13:49 73.4 °F 51.8 °F 29.9 in WSW 11.8 mph 14.3 mph 46% 0 in 710.00 W/m2 unknown
13:54 73.4 °F 50 °F 29.9 in West 9.9 mph 14.3 mph 45% 0 in 710.00 W/m2 unknown
13:59 73.4 °F 48.2 °F 29.9 in West 8.7 mph 13 mph 43% 0 in 707.00 W/m2 unknown
14:04 73.4 °F 48.2 °F 29.9 in WSW 8.1 mph 13 mph 40% 0 in 708.00 W/m2 unknown
14:09 73.4 °F 48.2 °F 29.9 in WSW 6.8 mph 10.6 mph 40% 0 in 705.00 W/m2 unknown
14:14 73.4 °F 48.2 °F 29.9 in WSW 7.5 mph 10.6 mph 40% 0 in 698.00 W/m2 unknown
14:19 73.4 °F 48.2 °F 29.9 in West 11.8 mph 14.9 mph 39% 0 in 698.00 W/m2 unknown
14:24 73.4 °F 46.4 °F 29.9 in West 9.9 mph 14.9 mph 38% 0 in 693.00 W/m2 unknown
14:29 75.2 °F 48.2 °F 29.9 in WSW 7.5 mph 11.8 mph 38% 0 in 693.00 W/m2 unknown
14:34 75.2 °F 48.2 °F 29.9 in WSW 7.5 mph 10.6 mph 38% 0 in 684.00 W/m2 unknown
14:39 75.2 °F 46.4 °F 29.9 in WSW 6.8 mph 9.9 mph 37% 0 in 679.00 W/m2 unknown
14:44 75.2 °F 48.2 °F 29.9 in WSW 7.5 mph 10.6 mph 38% 0 in 675.00 W/m2 unknown
14:49 75.2 °F 46.4 °F 29.9 in West 7.5 mph 9.9 mph 37% 0 in 666.00 W/m2 unknown
14:54 75.2 °F 46.4 °F 29.9 in West 8.1 mph 14.3 mph 36% 0 in 657.00 W/m2 unknown
14:59 75.2 °F 46.4 °F 29.9 in West 8.1 mph 14.3 mph 36% 0 in 657.00 W/m2 unknown
15:04 77 °F 46.4 °F 29.9 in West 8.1 mph 13 mph 36% 0 in 649.00 W/m2 unknown
15:09 77 °F 44.6 °F 29.9 in West 11.2 mph 13 mph 33% 0 in 643.00 W/m2 unknown
15:14 75.2 °F 44.6 °F 29.9 in West 9.9 mph 13.7 mph 32% 0 in 636.00 W/m2 unknown
15:19 77 °F 44.6 °F 29.9 in WNW 7.5 mph 14.3 mph 32% 0 in 626.00 W/m2 unknown
15:24 77 °F 44.6 °F 29.9 in WSW 9.9 mph 13 mph 33% 0 in 617.00 W/m2 unknown
15:29 77 °F 46.4 °F 29.9 in West 8.1 mph 13 mph 35% 0 in 608.00 W/m2 unknown
15:34 77 °F 44.6 °F 29.9 in WNW 8.7 mph 11.8 mph 33% 0 in 594.00 W/m2 unknown
15:39 77 °F 48.2 °F 29.9 in West 6.8 mph 11.8 mph 36% 0 in 584.00 W/m2 unknown
15:44 77 °F 46.4 °F 29.9 in West 8.7 mph 13 mph 35% 0 in 573.00 W/m2 unknown
15:49 77 °F 48.2 °F 29.9 in West 8.7 mph 13 mph 36% 0 in 564.00 W/m2 unknown
15:54 77 °F 48.2 °F 29.9 in West 8.1 mph 13 mph 36% 0 in 554.00 W/m2 unknown
15:59 77 °F 48.2 °F 29.9 in WSW 7.5 mph 10.6 mph 37% 0 in 543.00 W/m2 unknown
16:04 77 °F 48.2 °F 29.9 in SW 7.5 mph 11.8 mph 36% 0 in 531.00 W/m2 unknown
16:09 77 °F 46.4 °F 29.9 in SW 8.7 mph 13 mph 35% 0 in 520.00 W/m2 unknown
16:14 77 °F 46.4 °F 29.9 in West 9.9 mph 14.9 mph 34% 0 in 508.00 W/m2 unknown
16:19 77 °F 48.2 °F 29.9 in West 9.3 mph 14.9 mph 36% 0 in 501.00 W/m2 unknown
16:24 77 °F 46.4 °F 29.9 in WSW 7.5 mph 13 mph 35% 0 in 492.00 W/m2 unknown
16:29 77 °F 46.4 °F 29.9 in West 8.1 mph 11.8 mph 35% 0 in 476.00 W/m2 unknown
16:34 77 °F 46.4 °F 29.9 in West 9.3 mph 14.3 mph 35% 0 in 464.00 W/m2 unknown
16:39 77 °F 48.2 °F 29.9 in WSW 8.1 mph 14.3 mph 36% 0 in 452.00 W/m2 unknown
16:44 77 °F 46.4 °F 29.9 in WSW 8.1 mph 13 mph 35% 0 in 438.00 W/m2 unknown
16:49 77 °F 46.4 °F 29.9 in WSW 8.1 mph 11.8 mph 35% 0 in 427.00 W/m2 unknown
16:54 77 °F 46.4 °F 29.9 in SW 8.7 mph 11.8 mph 34% 0 in 413.00 W/m2 unknown
16:59 77 °F 48.2 °F 29.9 in WSW 8.7 mph 11.8 mph 36% 0 in 399.00 W/m2 unknown
17:04 77 °F 46.4 °F 29.9 in SW 8.1 mph 11.8 mph 35% 0 in 387.00 W/m2 unknown
17:09 77 °F 46.4 °F 29.9 in SW 10.6 mph 14.9 mph 35% 0 in 376.00 W/m2 unknown
17:14 75.2 °F 44.6 °F 29.9 in WSW 9.9 mph 14.9 mph 34% 0 in 359.00 W/m2 unknown
17:19 75.2 °F 44.6 °F 29.9 in WSW 8.1 mph 13 mph 34% 0 in 345.00 W/m2 unknown
17:24 75.2 °F 46.4 °F 29.9 in WSW 6.8 mph 11.8 mph 35% 0 in 329.00 W/m2 unknown
17:29 77 °F 46.4 °F 29.9 in WSW 7.5 mph 13 mph 36% 0 in 318.00 W/m2 unknown
17:34 75.2 °F 46.4 °F 29.9 in WSW 8.7 mph 13 mph 36% 0 in 308.00 W/m2 unknown
17:39 75.2 °F 46.4 °F 29.9 in West 8.7 mph 13 mph 36% 0 in 292.00 W/m2 unknown
17:44 75.2 °F 44.6 °F 29.9 in West 10.6 mph 14.3 mph 33% 0 in 278.00 W/m2 unknown
17:49 75.2 °F 44.6 °F 29.9 in West 8.7 mph 11.8 mph 33% 0 in 262.00 W/m2 unknown
17:54 75.2 °F 44.6 °F 29.9 in West 8.1 mph 11.8 mph 32% 0 in 250.00 W/m2 unknown
17:59 75.2 °F 42.8 °F 29.9 in West 8.1 mph 10.6 mph 31% 0 in 234.00 W/m2 unknown
18:04 75.2 °F 42.8 °F 29.9 in West 6.8 mph 10.6 mph 32% 0 in 218.00 W/m2 unknown
18:09 75.2 °F 44.6 °F 29.9 in WNW 6.2 mph 9.9 mph 33% 0 in 204.00 W/m2 unknown
18:14 75.2 °F 44.6 °F 29.9 in NW 4.3 mph 8.1 mph 34% 0 in 185.00 W/m2 unknown
18:19 75.2 °F 46.4 °F 29.9 in NW 3.1 mph 6.8 mph 35% 0 in 167.00 W/m2 unknown
18:24 75.2 °F 44.6 °F 29.9 in WNW 3.7 mph 6.2 mph 33% 0 in 51.00 W/m2 unknown
18:29 75.2 °F 44.6 °F 29.9 in West 3.7 mph 6.2 mph 36% 0 in 28.00 W/m2 unknown
18:34 73.4 °F 46.4 °F 29.9 in WSW 3.1 mph 5 mph 37% 0 in 95.00 W/m2 unknown
18:39 73.4 °F 46.4 °F 29.9 in WSW 1.9 mph 3.7 mph 39% 0 in 95.00 W/m2 unknown
18:44 73.4 °F 48.2 °F 29.9 in WSW 1.9 mph 3.7 mph 41% 0 in 81.00 W/m2 unknown
18:49 73.4 °F 48.2 °F 29.9 in West 1.9 mph 3.1 mph 42% 0 in 67.00 W/m2 unknown
18:54 71.6 °F 48.2 °F 29.9 in West 1.9 mph 3.7 mph 45% 0 in 53.00 W/m2 unknown
18:59 71.6 °F 50 °F 29.9 in WSW 1.9 mph 3.1 mph 49% 0 in 25.00 W/m2 unknown
19:04 69.8 °F 51.8 °F 29.9 in SW 1.9 mph 3.7 mph 53% 0 in 14.00 W/m2 unknown
19:09 68 °F 51.8 °F 29.9 in SSW 1.9 mph 3.1 mph 54% 0 in 12.00 W/m2 unknown
19:14 68 °F 50 °F 29.9 in South 1.2 mph 2.5 mph 55% 0 in 11.00 W/m2 unknown
19:19 66.2 °F 50 °F 29.9 in South 1.2 mph 2.5 mph 56% 0 in 7.00 W/m2 unknown
19:24 66.2 °F 50 °F 29.9 in South 2.5 mph 3.7 mph 57% 0 in 5.00 W/m2 unknown
19:29 66.2 °F 51.8 °F 29.9 in South 3.1 mph 3.7 mph 59% 0 in 0.00 W/m2 unknown
19:34 66.2 °F 51.8 °F 29.9 in SSW 2.5 mph 3.7 mph 61% 0 in 0.00 W/m2 unknown
19:39 66.2 °F 51.8 °F 29.9 in SSW 1.9 mph 3.7 mph 63% 0 in 0.00 W/m2 unknown
19:44 64.4 °F 51.8 °F 29.9 in SSW 2.5 mph 3.7 mph 63% 0 in 0.00 W/m2 unknown
19:49 64.4 °F 51.8 °F 29.9 in SSW 1.9 mph 3.7 mph 62% 0 in 0.00 W/m2 unknown
19:54 64.4 °F 51.8 °F 29.9 in SSW 0.6 mph 3.1 mph 63% 0 in 0.00 W/m2 unknown
19:59 64.4 °F 51.8 °F 29.9 in SSW 0.6 mph 1.2 mph 63% 0 in 0.00 W/m2 unknown
20:04 64.4 °F 51.8 °F 29.9 in SSE 1.9 mph 3.1 mph 65% 0 in 0.00 W/m2 unknown
20:09 62.6 °F 50 °F 29.9 in SE 2.5 mph 3.7 mph 63% 0 in 0.00 W/m2 unknown
20:14 62.6 °F 50 °F 29.9 in SE 2.5 mph 3.7 mph 63% 0 in 0.00 W/m2 unknown
20:19 62.6 °F 50 °F 29.9 in ESE 2.5 mph 3.7 mph 63% 0 in 0.00 W/m2 unknown
20:24 62.6 °F 50 °F 29.9 in SE 1.9 mph 3.7 mph 65% 0 in 0.00 W/m2 unknown
20:29 62.6 °F 50 °F 29.9 in SSE 1.9 mph 3.7 mph 66% 0 in 0.00 W/m2 unknown
20:34 62.6 °F 50 °F 29.9 in SSE 1.2 mph 3.1 mph 66% 0 in 0.00 W/m2 unknown
20:39 62.6 °F 50 °F 29.9 in South 1.2 mph 2.5 mph 67% 0 in 0.00 W/m2 unknown
20:44 62.6 °F 51.8 °F 29.9 in South 1.2 mph 2.5 mph 68% 0 in 0.00 W/m2 unknown
20:49 60.8 °F 50 °F 29.9 in South 1.2 mph 2.5 mph 68% 0 in 0.00 W/m2 unknown
20:54 60.8 °F 50 °F 29.9 in Calm   1.9 mph 69% 0 in 0.00 W/m2 unknown
20:59 60.8 °F 51.8 °F 29.9 in Calm   1.2 mph 71% 0 in 0.00 W/m2 unknown
21:04 60.8 °F 51.8 °F 29.9 in Calm   1.2 mph 71% 0 in 0.00 W/m2 unknown
21:09 60.8 °F 50 °F 29.9 in South 1.2 mph 2.5 mph 69% 0 in 0.00 W/m2 unknown
21:14 60.8 °F 50 °F 29.9 in South 1.2 mph 2.5 mph 67% 0 in 0.00 W/m2 unknown
21:19 60.8 °F 50 °F 29.9 in SSE 1.2 mph 2.5 mph 68% 0 in 0.00 W/m2 unknown
21:24 60.8 °F 50 °F 29.9 in South 0.6 mph 2.5 mph 70% 0 in 0.00 W/m2 unknown
21:29 60.8 °F 50 °F 29.9 in South 1.9 mph 2.5 mph 72% 0 in 0.00 W/m2 unknown
21:34 59 °F 51.8 °F 29.9 in South 1.9 mph 2.5 mph 73% 0 in 0.00 W/m2 unknown
21:39 59 °F 51.8 °F 29.9 in South 1.9 mph 3.7 mph 73% 0 in 0.00 W/m2 unknown
21:44 59 °F 51.8 °F 29.9 in South 1.9 mph 3.7 mph 73% 0 in 0.00 W/m2 unknown
21:49 60.8 °F 50 °F 29.9 in SSW 1.9 mph 3.7 mph 71% 0 in 0.00 W/m2 unknown
21:54 60.8 °F 50 °F 29.9 in SSW 1.9 mph 3.7 mph 70% 0 in 0.00 W/m2 unknown
21:59 60.8 °F 50 °F 29.9 in SSW 2.5 mph 3.1 mph 72% 0 in 0.00 W/m2 unknown
22:04 59 °F 50 °F 29.9 in SSW 3.7 mph 5 mph 72% 0 in 0.00 W/m2 unknown
22:09 60.8 °F 50 °F 29.9 in SSW 3.1 mph 5 mph 71% 0 in 0.00 W/m2 unknown
22:14 60.8 °F 50 °F 29.9 in SSW 2.5 mph 3.7 mph 68% 0 in 0.00 W/m2 unknown
22:19 60.8 °F 50 °F 29.9 in SSW 2.5 mph 3.7 mph 69% 0 in 0.00 W/m2 unknown
22:24 60.8 °F 50 °F 29.9 in SSW 2.5 mph 3.7 mph 69% 0 in 0.00 W/m2 unknown
22:29 59 °F 50 °F 29.9 in SSW 2.5 mph 3.7 mph 70% 0 in 0.00 W/m2 unknown
22:34 59 °F 50 °F 29.9 in SSW 3.1 mph 5 mph 71% 0 in 0.00 W/m2 unknown
22:39 59 °F 50 °F 29.9 in SSW 4.3 mph 6.2 mph 71% 0 in 0.00 W/m2 unknown
22:44 59 °F 48.2 °F 29.9 in SSW 3.1 mph 6.2 mph 69% 0 in 0.00 W/m2 unknown
22:49 59 °F 48.2 °F 29.9 in SSW 3.1 mph 5 mph 68% 0 in 0.00 W/m2 unknown
22:54 60.8 °F 48.2 °F 29.9 in SSW 3.7 mph 5 mph 68% 0 in 0.00 W/m2 unknown
22:59 60.8 °F 50 °F 29.9 in South 4.3 mph 5 mph 69% 0 in 0.00 W/m2 unknown
23:04 59 °F 48.2 °F 29.9 in SSW 4.3 mph 5 mph 68% 0 in 0.00 W/m2 unknown
23:09 59 °F 48.2 °F 29.9 in SW 2.5 mph 4.3 mph 68% 0 in 0.00 W/m2 unknown
23:14 59 °F 48.2 °F 29.9 in SSW 3.1 mph 3.7 mph 69% 0 in 0.00 W/m2 unknown
23:19 59 °F 48.2 °F 29.9 in SSW 3.1 mph 3.7 mph 70% 0 in 0.00 W/m2 unknown
23:24 59 °F 48.2 °F 29.9 in SSW 3.7 mph 5 mph 70% 0 in 0.00 W/m2 unknown
23:29 59 °F 48.2 °F 29.9 in SW 4.3 mph 5 mph 70% 0 in 0.00 W/m2 unknown
23:34 59 °F 48.2 °F 29.9 in SW 3.1 mph 5 mph 71% 0 in 0.00 W/m2 unknown
23:39 59 °F 48.2 °F 29.9 in SW 4.3 mph 6.2 mph 72% 0 in 0.00 W/m2 unknown
23:44 59 °F 50 °F 29.9 in SW 5 mph 6.2 mph 72% 0 in 0.00 W/m2 unknown
23:49 59 °F 50 °F 29.9 in WSW 5 mph 8.1 mph 71% 0 in 0.00 W/m2 unknown
23:54 59 °F 50 °F 29.9 in WSW 5 mph 8.1 mph 70% 0 in 0.00 W/m2 unknown
23:59 59 °F 50 °F 29.9 in WSW 5 mph 6.8 mph 71% 0 in 0.00 W/m2 unknown
Stazione Meteorologica MeteoMincio Rivalta s/M (MN)
Con i complimenti di Weather Underground - 4 mb



METEO PILLOLE
La variazione termica più rapida
Spearfish, South Dakota - USA
Il 22 gennaio 1943 in soli 2 minuti la temperatura passò da -20°C a +7°C.
Share

Non seguire questo link o sarai bannato dal sito!